createdAt,value
2019-06-01T00:02:04.356Z,13.07
2019-06-01T00:04:34.991Z,13.01
2019-06-01T00:07:05.722Z,12.97
2019-06-01T00:09:37.267Z,12.96
2019-06-01T00:12:07.702Z,12.92
2019-06-01T00:14:39.570Z,12.88
2019-06-01T00:17:10.463Z,12.83
2019-06-01T00:19:41.995Z,12.76
2019-06-01T00:22:12.503Z,12.70
2019-06-01T00:24:43.831Z,12.67
2019-06-01T00:27:14.350Z,12.64
2019-06-01T00:29:46.787Z,12.59
2019-06-01T00:32:17.408Z,12.56
2019-06-01T00:34:47.848Z,12.54
2019-06-01T00:37:18.457Z,12.51
2019-06-01T00:39:49.924Z,12.48
2019-06-01T00:42:20.359Z,12.45
2019-06-01T00:44:50.936Z,12.40
2019-06-01T00:47:21.587Z,12.36
2019-06-01T00:49:53.084Z,12.30
2019-06-01T00:52:23.783Z,12.26
2019-06-01T00:54:54.862Z,12.22
2019-06-01T00:57:25.427Z,12.17
2019-06-01T00:59:55.930Z,12.12
2019-06-01T01:02:26.559Z,12.10
2019-06-01T01:05:08.921Z,12.06
2019-06-01T01:07:39.490Z,12.00
2019-06-01T01:10:10.647Z,11.98
2019-06-01T01:12:58.682Z,11.95
2019-06-01T01:15:29.221Z,11.93
2019-06-01T01:18:01.272Z,11.91
2019-06-01T01:20:31.805Z,11.88
2019-06-01T01:23:02.590Z,11.86
2019-06-01T01:25:33.786Z,11.86
2019-06-01T01:28:04.636Z,11.86
2019-06-01T01:30:36.294Z,11.86
2019-06-01T01:33:08.430Z,11.81
2019-06-01T01:35:38.987Z,11.76
2019-06-01T01:38:09.514Z,11.73
2019-06-01T01:40:39.963Z,11.69
2019-06-01T01:43:10.490Z,11.64
2019-06-01T01:45:41.210Z,11.62
2019-06-01T01:48:11.679Z,11.59
2019-06-01T01:50:42.244Z,11.55
2019-06-01T01:53:12.737Z,11.50
2019-06-01T01:55:44.430Z,11.44
2019-06-01T01:58:14.936Z,11.42
2019-06-01T02:00:48.429Z,11.38
2019-06-01T02:03:18.967Z,11.34
2019-06-01T02:05:50.679Z,11.30
2019-06-01T02:08:21.249Z,11.27
2019-06-01T02:10:51.674Z,11.22
2019-06-01T02:13:22.127Z,11.20
2019-06-01T02:15:54.058Z,11.19
2019-06-01T02:18:24.597Z,11.18
2019-06-01T02:20:56.286Z,11.20
2019-06-01T02:23:26.761Z,11.20
2019-06-01T02:25:57.286Z,11.16
2019-06-01T02:28:27.801Z,11.16
2019-06-01T02:30:59.789Z,11.12
2019-06-01T02:33:30.501Z,11.08
2019-06-01T02:36:03.035Z,11.05
2019-06-01T02:38:33.142Z,11.03
2019-06-01T02:41:05.654Z,11.04
2019-06-01T02:43:37.170Z,11.03
2019-06-01T02:46:08.642Z,11.02
2019-06-01T02:48:39.200Z,10.99
2019-06-01T02:51:09.575Z,10.99
2019-06-01T02:53:39.965Z,10.97
2019-06-01T02:56:10.576Z,10.94
2019-06-01T02:58:41.296Z,10.93
2019-06-01T03:01:26.735Z,10.92
2019-06-01T03:03:57.784Z,10.92
2019-06-01T03:06:32.432Z,10.93
2019-06-01T03:09:06.812Z,10.88
2019-06-01T03:11:39.454Z,10.87
2019-06-01T03:14:13.120Z,10.85
2019-06-01T03:16:43.769Z,10.82
2019-06-01T03:19:17.070Z,10.78
2019-06-01T03:21:50.177Z,10.74
2019-06-01T03:24:25.015Z,10.74
2019-06-01T03:26:56.139Z,10.74
2019-06-01T03:29:29.577Z,10.71
2019-06-01T03:32:19.205Z,10.71
2019-06-01T03:34:32.173Z,10.70
2019-06-01T03:37:02.948Z,10.67
2019-06-01T03:39:35.281Z,10.66
2019-06-01T03:42:07.997Z,10.64
2019-06-01T03:44:38.494Z,10.64
2019-06-01T03:47:09.749Z,10.64
2019-06-01T03:49:40.390Z,10.66
2019-06-01T03:52:10.974Z,10.65
2019-06-01T03:54:41.420Z,10.62
2019-06-01T03:57:11.697Z,10.62
2019-06-01T03:59:42.213Z,10.65
2019-06-01T04:02:12.664Z,10.66
2019-06-01T04:04:43.188Z,10.70
2019-06-01T04:07:15.272Z,10.75
2019-06-01T04:09:45.658Z,10.81
2019-06-01T04:12:16.188Z,10.86
2019-06-01T04:14:46.623Z,10.92
2019-06-01T04:17:17.125Z,10.94
2019-06-01T04:19:47.635Z,10.98
2019-06-01T04:22:18.102Z,11.04
2019-06-01T04:24:48.528Z,11.09
2019-06-01T04:27:18.998Z,11.12
2019-06-01T04:29:51.051Z,11.15
2019-06-01T04:32:21.446Z,11.20
2019-06-01T04:34:51.936Z,11.26
2019-06-01T04:37:22.469Z,11.32
2019-06-01T04:39:52.892Z,11.37
2019-06-01T04:42:23.438Z,11.44
2019-06-01T04:44:53.970Z,11.53
2019-06-01T04:47:25.211Z,11.60
2019-06-01T04:49:55.826Z,11.66
2019-06-01T04:52:27.680Z,11.73
2019-06-01T04:54:58.300Z,11.78
2019-06-01T04:57:31.110Z,11.88
2019-06-01T05:00:03.251Z,12.02
2019-06-01T05:02:34.330Z,12.17
2019-06-01T05:05:09.160Z,12.31
2019-06-01T05:07:39.783Z,12.45
2019-06-01T05:10:11.582Z,12.61
2019-06-01T05:12:42.155Z,12.81
2019-06-01T05:15:16.127Z,13.02
2019-06-01T05:17:46.543Z,13.22
2019-06-01T05:20:17.314Z,13.50
2019-06-01T05:22:47.883Z,13.80
2019-06-01T05:25:18.324Z,14.17
2019-06-01T05:27:48.871Z,14.70
2019-06-01T05:30:19.875Z,15.33
2019-06-01T05:32:50.388Z,15.92
2019-06-01T05:35:22.820Z,16.56
2019-06-01T05:37:53.283Z,17.23
2019-06-01T05:40:23.874Z,17.72
2019-06-01T05:42:56.550Z,18.05
2019-06-01T05:45:27.029Z,18.35
2019-06-01T05:47:57.601Z,18.59
2019-06-01T05:50:28.994Z,18.91
2019-06-01T05:52:59.475Z,19.21
2019-06-01T05:55:29.984Z,19.68
2019-06-01T05:58:00.511Z,20.08
2019-06-01T06:00:42.429Z,20.56
2019-06-01T06:03:16.231Z,21.07
2019-06-01T06:05:46.515Z,21.81
2019-06-01T06:08:17.967Z,22.46
2019-06-01T06:10:48.519Z,23.10
2019-06-01T06:13:19.402Z,23.28
2019-06-01T06:15:52.293Z,23.43
2019-06-01T06:18:22.817Z,23.58
2019-06-01T06:20:53.291Z,23.97
2019-06-01T06:23:23.870Z,24.16
2019-06-01T06:25:54.505Z,24.40
2019-06-01T06:28:26.778Z,24.65
2019-06-01T06:30:57.384Z,24.76
2019-06-01T06:33:27.863Z,24.84
2019-06-01T06:35:58.470Z,24.76
2019-06-01T06:38:28.961Z,24.96
2019-06-01T06:40:59.584Z,25.41
2019-06-01T06:43:33.038Z,25.91
2019-06-01T06:46:02.537Z,26.20
2019-06-01T06:48:33.242Z,26.57
2019-06-01T06:51:03.811Z,26.57
2019-06-01T06:53:35.505Z,26.69
2019-06-01T06:56:10.035Z,26.81
2019-06-01T06:58:41.129Z,26.81
2019-06-01T07:01:12.252Z,26.79
2019-06-01T07:03:42.885Z,26.61
2019-06-01T07:06:13.310Z,25.94
2019-06-01T07:08:44.151Z,26.09
2019-06-01T07:11:14.597Z,26.42
2019-06-01T07:13:53.421Z,26.62
2019-06-01T07:16:23.989Z,26.80
2019-06-01T07:18:55.002Z,26.73
2019-06-01T07:21:25.848Z,25.87
2019-06-01T07:23:56.460Z,25.82
2019-06-01T07:26:30.179Z,26.14
2019-06-01T07:29:00.786Z,26.51
2019-06-01T07:31:32.493Z,27.08
2019-06-01T07:34:03.406Z,27.27
2019-06-01T07:36:33.936Z,27.23
2019-06-01T07:39:05.347Z,26.99
2019-06-01T07:41:35.885Z,27.05
2019-06-01T07:44:06.621Z,26.93
2019-06-01T07:46:37.161Z,27.35
2019-06-01T07:49:07.802Z,27.35
2019-06-01T07:51:38.309Z,27.73
2019-06-01T07:54:08.923Z,27.83
2019-06-01T07:56:39.843Z,28.31
2019-06-01T07:59:10.422Z,28.16
2019-06-01T08:01:41.203Z,28.25
2019-06-01T08:04:11.820Z,28.22
2019-06-01T08:06:46.072Z,28.26
2019-06-01T08:09:15.763Z,28.57
2019-06-01T08:11:46.145Z,28.61
2019-06-01T08:14:16.637Z,28.01
2019-06-01T08:16:47.163Z,27.71
2019-06-01T08:19:17.710Z,27.55
2019-06-01T08:21:48.285Z,27.72
2019-06-01T08:24:18.900Z,28.08
2019-06-01T08:26:49.936Z,28.07
2019-06-01T08:29:20.527Z,27.26
2019-06-01T08:31:55.656Z,26.71
2019-06-01T08:34:24.739Z,25.98
2019-06-01T08:36:55.586Z,26.01
2019-06-01T08:39:27.370Z,25.94
2019-06-01T08:41:58.144Z,26.83
2019-06-01T08:44:29.600Z,27.07
2019-06-01T08:47:00.304Z,26.94
2019-06-01T08:49:32.369Z,27.14
2019-06-01T08:52:03.014Z,27.09
2019-06-01T08:54:34.337Z,26.72
2019-06-01T08:57:04.937Z,26.46
2019-06-01T08:59:36.575Z,26.39
2019-06-01T09:02:07.142Z,26.50
2019-06-01T09:04:37.797Z,26.33
2019-06-01T09:07:08.378Z,26.28
2019-06-01T09:09:41.245Z,26.11
2019-06-01T09:12:15.956Z,25.93
2019-06-01T09:14:50.305Z,25.53
2019-06-01T09:17:25.278Z,24.94
2019-06-01T09:19:57.029Z,25.08
2019-06-01T09:22:29.474Z,25.46
2019-06-01T09:25:03.593Z,25.66
2019-06-01T09:27:36.126Z,25.79
2019-06-01T09:30:10.016Z,25.91
2019-06-01T09:32:41.143Z,25.74
2019-06-01T09:35:14.214Z,25.67
2019-06-01T09:37:45.884Z,25.63
2019-06-01T09:40:18.325Z,25.17
2019-06-01T09:42:57.385Z,24.98
2019-06-01T09:45:30.493Z,25.22
2019-06-01T09:48:01.264Z,25.49
2019-06-01T09:50:33.404Z,25.52
2019-06-01T09:53:05.323Z,25.79
2019-06-01T09:55:36.438Z,25.97
2019-06-01T09:58:07.142Z,25.95
2019-06-01T10:00:42.952Z,25.65
2019-06-01T10:03:10.068Z,25.37
2019-06-01T10:05:40.558Z,25.63
2019-06-01T10:08:11.023Z,25.68
2019-06-01T10:10:42.313Z,25.48
2019-06-01T10:13:13.025Z,25.49
2019-06-01T10:15:43.898Z,25.63
2019-06-01T10:18:14.670Z,25.73
2019-06-01T10:20:45.521Z,25.85
2019-06-01T10:23:16.245Z,26.00
2019-06-01T10:25:46.917Z,26.09
2019-06-01T10:28:17.656Z,26.33
2019-06-01T10:30:48.312Z,26.46
2019-06-01T10:33:19.935Z,26.49
2019-06-01T10:35:50.611Z,26.29
2019-06-01T10:38:22.683Z,26.29
2019-06-01T10:40:54.423Z,26.32
2019-06-01T10:43:25.128Z,26.49
2019-06-01T10:45:55.874Z,26.54
2019-06-01T10:48:26.716Z,26.67
2019-06-01T10:50:58.390Z,26.74
2019-06-01T10:53:28.903Z,26.90
2019-06-01T10:55:59.459Z,27.03
2019-06-01T10:58:32.235Z,27.11
2019-06-01T11:01:02.924Z,26.95
2019-06-01T11:03:34.630Z,26.88
2019-06-01T11:06:05.209Z,26.83
2019-06-01T11:08:37.047Z,27.03
2019-06-01T11:11:07.781Z,27.22
2019-06-01T11:13:39.084Z,27.30
2019-06-01T11:16:09.738Z,27.39
2019-06-01T11:18:41.764Z,27.40
2019-06-01T11:21:13.020Z,27.13
2019-06-01T11:23:46.379Z,27.16
2019-06-01T11:26:16.202Z,27.11
2019-06-01T11:28:46.904Z,26.98
2019-06-01T11:31:17.587Z,27.11
2019-06-01T11:33:48.423Z,27.18
2019-06-01T11:36:19.359Z,27.35
2019-06-01T11:38:50.191Z,27.45
2019-06-01T11:41:20.899Z,27.47
2019-06-01T11:43:51.470Z,27.49
2019-06-01T11:46:22.374Z,27.65
2019-06-01T11:48:52.928Z,27.62
2019-06-01T11:51:23.870Z,27.63
2019-06-01T11:53:54.888Z,27.48
2019-06-01T11:56:25.601Z,27.51
2019-06-01T11:58:56.658Z,27.60
2019-06-01T12:01:27.899Z,27.49
2019-06-01T12:03:58.549Z,27.58
2019-06-01T12:06:29.086Z,27.61
2019-06-01T12:08:59.757Z,27.55
2019-06-01T12:11:30.563Z,27.71
2019-06-01T12:14:01.391Z,27.71
2019-06-01T12:16:32.136Z,27.83
2019-06-01T12:19:03.050Z,27.82
2019-06-01T12:21:34.176Z,27.87
2019-06-01T12:24:04.935Z,27.77
2019-06-01T12:26:35.513Z,27.88
2019-06-01T12:29:06.399Z,28.02
2019-06-01T12:31:38.023Z,28.07
2019-06-01T12:34:08.672Z,28.21
2019-06-01T12:36:40.879Z,28.24
2019-06-01T12:39:13.527Z,28.27
2019-06-01T12:41:45.530Z,28.29
2019-06-01T12:44:16.217Z,28.28
2019-06-01T12:46:47.039Z,28.42
2019-06-01T12:49:17.735Z,28.42
2019-06-01T12:51:48.958Z,28.29
2019-06-01T12:54:19.707Z,28.40
2019-06-01T12:56:50.424Z,28.55
2019-06-01T12:59:20.971Z,28.37
2019-06-01T13:01:51.798Z,28.37
2019-06-01T13:04:22.401Z,28.54
2019-06-01T13:06:54.177Z,28.69
2019-06-01T13:09:24.863Z,28.87
2019-06-01T13:11:55.473Z,28.70
2019-06-01T13:14:26.144Z,28.64
2019-06-01T13:17:06.773Z,28.74
2019-06-01T13:19:30.121Z,28.95
2019-06-01T13:22:00.557Z,29.07
2019-06-01T13:24:31.207Z,28.85
2019-06-01T13:27:01.901Z,28.81
2019-06-01T13:29:32.703Z,28.70
2019-06-01T13:32:03.404Z,28.61
2019-06-01T13:34:34.525Z,28.66
2019-06-01T13:37:05.332Z,28.65
2019-06-01T13:39:36.909Z,28.66
2019-06-01T13:42:07.564Z,28.74
2019-06-01T13:44:38.082Z,28.96
2019-06-01T13:47:08.796Z,29.20
2019-06-01T13:49:40.096Z,29.24
2019-06-01T13:52:11.032Z,29.27
2019-06-01T13:54:41.966Z,29.51
2019-06-01T13:57:12.532Z,29.57
2019-06-01T13:59:47.114Z,29.47
2019-06-01T14:02:17.781Z,29.34
2019-06-01T14:04:49.769Z,29.17
2019-06-01T14:07:20.390Z,29.16
2019-06-01T14:09:52.201Z,29.08
2019-06-01T14:12:23.464Z,28.72
2019-06-01T14:14:53.990Z,28.75
2019-06-01T14:17:24.513Z,28.85
2019-06-01T14:19:55.887Z,28.91
2019-06-01T14:22:26.489Z,29.02
2019-06-01T14:25:11.990Z,29.25
2019-06-01T14:27:29.289Z,29.48
2019-06-01T14:30:00.888Z,29.38
2019-06-01T14:32:35.623Z,29.38
2019-06-01T14:35:06.600Z,29.18
2019-06-01T14:37:37.722Z,28.97
2019-06-01T14:40:08.726Z,28.86
2019-06-01T14:42:39.370Z,29.01
2019-06-01T14:45:10.198Z,29.26
2019-06-01T14:47:40.896Z,29.15
2019-06-01T14:50:12.857Z,28.74
2019-06-01T14:52:43.579Z,28.47
2019-06-01T14:55:14.534Z,28.36
2019-06-01T14:57:45.246Z,28.37
2019-06-01T15:00:16.212Z,28.50
2019-06-01T15:02:48.113Z,28.69
2019-06-01T15:05:18.973Z,28.62
2019-06-01T15:07:50.192Z,28.51
2019-06-01T15:10:21.194Z,28.73
2019-06-01T15:12:56.544Z,28.89
2019-06-01T15:15:24.299Z,28.87
2019-06-01T15:17:55.505Z,28.98
2019-06-01T15:20:26.064Z,29.05
2019-06-01T15:22:56.675Z,29.05
2019-06-01T15:25:27.247Z,29.20
2019-06-01T15:27:58.888Z,29.29
2019-06-01T15:30:30.827Z,29.46
2019-06-01T15:33:03.417Z,29.50
2019-06-01T15:35:34.228Z,29.57
2019-06-01T15:38:04.974Z,29.48
2019-06-01T15:40:35.623Z,29.20
2019-06-01T15:43:06.143Z,29.09
2019-06-01T15:45:41.085Z,28.93
2019-06-01T15:48:09.124Z,28.70
2019-06-01T15:50:39.820Z,28.46
2019-06-01T15:53:11.871Z,28.22
2019-06-01T15:55:42.543Z,28.07
2019-06-01T15:58:13.146Z,27.84
2019-06-01T16:00:43.675Z,27.76
2019-06-01T16:03:14.262Z,27.78
2019-06-01T16:05:45.826Z,27.82
2019-06-01T16:08:16.422Z,28.01
2019-06-01T16:10:46.958Z,28.20
2019-06-01T16:13:17.616Z,28.23
2019-06-01T16:15:48.176Z,28.10
2019-06-01T16:18:18.721Z,28.26
2019-06-01T16:20:49.464Z,28.34
2019-06-01T16:23:20.115Z,28.42
2019-06-01T16:26:04.917Z,28.42
2019-06-01T16:28:22.898Z,28.32
2019-06-01T16:30:54.372Z,28.05
2019-06-01T16:33:24.999Z,27.69
2019-06-01T16:35:56.916Z,27.45
2019-06-01T16:38:27.552Z,27.12
2019-06-01T16:41:01.349Z,27.12
2019-06-01T16:43:32.541Z,27.26
2019-06-01T16:46:03.836Z,27.26
2019-06-01T16:48:34.749Z,27.43
2019-06-01T16:51:05.911Z,27.55
2019-06-01T16:53:36.586Z,27.64
2019-06-01T16:56:07.249Z,27.84
2019-06-01T16:58:37.751Z,28.03
2019-06-01T17:01:08.338Z,28.24
2019-06-01T17:03:39.638Z,27.93
2019-06-01T17:06:10.179Z,27.59
2019-06-01T17:08:41.182Z,27.49
2019-06-01T17:11:14.722Z,27.32
2019-06-01T17:13:45.808Z,27.38
2019-06-01T17:16:16.202Z,27.51
2019-06-01T17:18:46.855Z,27.58
2019-06-01T17:21:17.549Z,27.71
2019-06-01T17:23:48.684Z,27.73
2019-06-01T17:26:19.270Z,27.66
2019-06-01T17:28:50.171Z,27.71
2019-06-01T17:31:21.790Z,27.82
2019-06-01T17:33:52.293Z,27.87
2019-06-01T17:36:23.547Z,27.92
2019-06-01T17:38:54.150Z,27.88
2019-06-01T17:41:24.783Z,27.78
2019-06-01T17:43:55.296Z,27.66
2019-06-01T17:46:25.909Z,27.43
2019-06-01T17:48:56.417Z,27.16
2019-06-01T17:51:27.018Z,26.90
2019-06-01T17:53:57.559Z,26.71
2019-06-01T17:56:28.153Z,26.50
2019-06-01T17:58:58.627Z,26.12
2019-06-01T18:01:29.431Z,26.12
2019-06-01T18:04:02.239Z,25.96
2019-06-01T18:06:32.942Z,25.81
2019-06-01T18:09:03.848Z,25.72
2019-06-01T18:11:36.001Z,25.59
2019-06-01T18:14:08.201Z,25.50
2019-06-01T18:16:39.067Z,25.42
2019-06-01T18:19:10.402Z,25.33
2019-06-01T18:21:41.663Z,25.20
2019-06-01T18:24:14.752Z,25.10
2019-06-01T18:26:45.748Z,25.04
2019-06-01T18:29:16.473Z,24.93
2019-06-01T18:31:47.065Z,24.83
2019-06-01T18:34:17.770Z,24.77
2019-06-01T18:36:48.478Z,24.69
2019-06-01T18:39:19.123Z,24.57
2019-06-01T18:41:50.218Z,24.53
2019-06-01T18:44:20.812Z,24.47
2019-06-01T18:46:51.431Z,24.40
2019-06-01T18:49:22.355Z,24.33
2019-06-01T18:51:53.028Z,24.28
2019-06-01T18:54:23.810Z,24.25
2019-06-01T18:57:09.108Z,24.20
2019-06-01T18:59:26.828Z,24.14
2019-06-01T19:01:57.332Z,24.09
2019-06-01T19:04:28.478Z,24.07
2019-06-01T19:06:59.391Z,23.99
2019-06-01T19:09:30.019Z,23.96
2019-06-01T19:12:00.797Z,23.91
2019-06-01T19:14:32.898Z,23.85
2019-06-01T19:17:03.494Z,23.80
2019-06-01T19:19:34.229Z,23.76
2019-06-01T19:22:04.965Z,23.69
2019-06-01T19:24:36.611Z,23.63
2019-06-01T19:27:08.580Z,23.58
2019-06-01T19:29:39.325Z,23.54
2019-06-01T19:32:10.862Z,23.49
2019-06-01T19:34:42.117Z,23.42
2019-06-01T19:37:13.125Z,23.35
2019-06-01T19:39:44.423Z,23.30
2019-06-01T19:42:15.569Z,23.23
2019-06-01T19:44:46.299Z,23.17
2019-06-01T19:47:19.158Z,23.09
2019-06-01T19:49:50.326Z,23.01
2019-06-01T19:52:21.331Z,22.92
2019-06-01T19:54:52.159Z,22.84
2019-06-01T19:57:23.975Z,22.76
2019-06-01T19:59:54.771Z,22.68
2019-06-01T20:02:33.608Z,22.62
2019-06-01T20:04:59.459Z,22.56
2019-06-01T20:07:30.046Z,22.49
2019-06-01T20:10:00.618Z,22.39
2019-06-01T20:12:34.288Z,22.27
2019-06-01T20:15:05.357Z,22.14
2019-06-01T20:17:35.980Z,22.01
2019-06-01T20:20:07.060Z,21.88
2019-06-01T20:22:37.728Z,21.77
2019-06-01T20:25:08.683Z,21.65
2019-06-01T20:27:39.463Z,21.57
2019-06-01T20:30:11.711Z,21.47
2019-06-01T20:32:42.578Z,21.37
2019-06-01T20:35:13.999Z,21.29
2019-06-01T20:37:44.654Z,21.20
2019-06-01T20:40:16.341Z,21.10
2019-06-01T20:42:47.055Z,21.02
2019-06-01T20:45:18.765Z,20.97
2019-06-01T20:47:49.447Z,20.91
2019-06-01T20:50:20.813Z,20.84
2019-06-01T20:52:51.539Z,20.77
2019-06-01T20:55:24.316Z,20.73
2019-06-01T20:57:55.808Z,20.69
2019-06-01T21:00:26.357Z,20.66
2019-06-01T21:02:57.185Z,20.69
2019-06-01T21:05:27.862Z,20.71
2019-06-01T21:07:58.466Z,20.71
2019-06-01T21:10:30.746Z,20.71
2019-06-01T21:13:01.432Z,20.70
2019-06-01T21:15:33.094Z,20.71
2019-06-01T21:18:03.971Z,20.72
2019-06-01T21:20:34.596Z,20.72
2019-06-01T21:23:05.247Z,20.70
2019-06-01T21:25:36.027Z,20.67
2019-06-01T21:28:08.022Z,20.67
2019-06-01T21:30:38.648Z,20.67
2019-06-01T21:33:09.584Z,20.65
2019-06-01T21:35:43.150Z,20.62
2019-06-01T21:38:13.733Z,20.56
2019-06-01T21:40:44.617Z,20.50
2019-06-01T21:43:26.101Z,20.48
2019-06-01T21:45:50.245Z,20.46
2019-06-01T21:48:21.735Z,20.42
2019-06-01T21:50:54.896Z,20.39
2019-06-01T21:53:26.711Z,20.35
2019-06-01T21:55:57.855Z,20.32
2019-06-01T21:58:33.431Z,20.31
2019-06-01T22:01:04.696Z,20.31
2019-06-01T22:03:35.404Z,20.30
2019-06-01T22:06:14.820Z,20.27
2019-06-01T22:08:52.530Z,20.18
2019-06-01T22:11:23.375Z,20.13
2019-06-01T22:13:54.131Z,20.08
2019-06-01T22:16:25.798Z,20.03
2019-06-01T22:18:56.628Z,19.92
2019-06-01T22:21:27.928Z,19.81
2019-06-01T22:23:58.806Z,19.71
2019-06-01T22:26:29.454Z,19.69
2019-06-01T22:29:00.344Z,19.65
2019-06-01T22:31:33.529Z,19.63
2019-06-01T22:34:07.355Z,19.60
2019-06-01T22:36:37.951Z,19.61
2019-06-01T22:39:09.401Z,19.59
2019-06-01T22:41:40.030Z,19.56
2019-06-01T22:44:11.654Z,19.54
2019-06-01T22:46:42.870Z,19.51
2019-06-01T22:49:13.476Z,19.49
2019-06-01T22:51:44.391Z,19.44
2019-06-01T22:54:16.952Z,19.39
2019-06-01T22:56:47.566Z,19.36
2019-06-01T22:59:18.195Z,19.33
2019-06-01T23:01:49.421Z,19.29
2019-06-01T23:04:22.975Z,19.22
2019-06-01T23:06:53.692Z,19.16
2019-06-01T23:09:25.562Z,19.10
2019-06-01T23:11:56.222Z,19.08
2019-06-01T23:14:27.401Z,19.05
2019-06-01T23:16:57.925Z,19.04
2019-06-01T23:19:29.824Z,19.00
2019-06-01T23:22:00.549Z,18.96
2019-06-01T23:24:32.266Z,18.93
2019-06-01T23:27:02.867Z,18.87
2019-06-01T23:29:33.475Z,18.83
2019-06-01T23:32:04.047Z,18.78
2019-06-01T23:34:37.769Z,18.70
2019-06-01T23:37:08.453Z,18.63
2019-06-01T23:39:38.926Z,18.59
2019-06-01T23:42:09.604Z,18.52
2019-06-01T23:44:40.135Z,18.45
2019-06-01T23:47:10.644Z,18.38
2019-06-01T23:49:41.252Z,18.33
2019-06-01T23:52:11.890Z,18.25
2019-06-01T23:54:42.379Z,18.21
2019-06-01T23:57:12.910Z,18.19
2019-06-01T23:59:43.445Z,18.19
